createdAt,value
2022-11-06T00:01:58.666Z,12.68
2022-11-06T00:04:26.807Z,12.30
2022-11-06T00:06:53.535Z,12.30
2022-11-06T00:09:21.903Z,12.01
2022-11-06T00:11:50.428Z,11.00
2022-11-06T00:14:18.212Z,12.25
2022-11-06T00:16:49.149Z,11.39
2022-11-06T00:19:16.945Z,11.38
2022-11-06T00:21:44.862Z,11.33
2022-11-06T00:24:13.554Z,12.52
2022-11-06T00:26:41.424Z,10.78
2022-11-06T00:29:09.046Z,11.53
2022-11-06T00:31:38.088Z,10.58
2022-11-06T00:34:07.888Z,11.98
2022-11-06T00:36:36.012Z,11.24
2022-11-06T00:39:04.412Z,11.79
2022-11-06T00:41:32.105Z,11.81
2022-11-06T00:44:01.048Z,11.46
2022-11-06T00:46:28.883Z,12.22
2022-11-06T00:48:56.690Z,11.51
2022-11-06T00:51:26.659Z,12.22
2022-11-06T00:53:57.953Z,12.04
2022-11-06T00:56:25.658Z,11.38
2022-11-06T00:58:53.397Z,11.51
2022-11-06T01:01:22.277Z,11.46
2022-11-06T01:03:53.344Z,10.79
2022-11-06T01:06:22.169Z,10.84
2022-11-06T01:08:52.318Z,11.03
2022-11-06T01:11:21.558Z,11.63
2022-11-06T01:13:50.487Z,9.42
2022-11-06T01:16:18.188Z,11.31
2022-11-06T01:18:46.358Z,11.56
2022-11-06T01:21:15.577Z,11.04
2022-11-06T01:23:43.525Z,11.56
2022-11-06T01:26:13.414Z,11.05
2022-11-06T01:28:41.236Z,11.48
2022-11-06T01:31:09.973Z,11.88
2022-11-06T01:33:37.776Z,11.55
2022-11-06T01:36:06.357Z,12.14
2022-11-06T01:38:34.252Z,12.14
2022-11-06T01:41:02.097Z,9.79
2022-11-06T01:46:24.417Z,12.12
2022-11-06T01:48:53.817Z,12.02
2022-11-06T01:51:21.986Z,12.17
2022-11-06T01:53:49.621Z,12.17
2022-11-06T01:56:30.295Z,12.18
2022-11-06T01:58:57.971Z,12.17
2022-11-06T02:01:27.193Z,12.20
2022-11-06T02:03:59.022Z,12.18
2022-11-06T02:06:26.807Z,12.18
2022-11-06T02:08:54.441Z,12.18
2022-11-06T02:11:22.450Z,12.18
2022-11-06T02:13:59.640Z,12.03
2022-11-06T02:16:34.719Z,12.20
2022-11-06T02:19:16.101Z,12.14
2022-11-06T02:22:12.101Z,12.20
2022-11-06T02:25:13.575Z,12.21
2022-11-06T02:27:43.489Z,12.18
2022-11-06T02:30:11.809Z,12.15
2022-11-06T02:32:47.524Z,12.08
2022-11-06T02:35:19.691Z,11.96
2022-11-06T02:37:48.894Z,11.96
2022-11-06T02:40:16.935Z,12.03
2022-11-06T02:42:47.553Z,11.77
2022-11-06T02:45:20.675Z,11.75
2022-11-06T02:47:50.079Z,11.93
2022-11-06T02:50:22.000Z,11.90
2022-11-06T02:52:51.614Z,12.04
2022-11-06T02:55:22.450Z,11.89
2022-11-06T02:57:54.490Z,11.95
2022-11-06T03:00:23.791Z,12.16
2022-11-06T03:02:54.417Z,11.99
2022-11-06T03:05:24.467Z,12.16
2022-11-06T03:07:54.478Z,12.19
2022-11-06T03:10:22.126Z,12.24
2022-11-06T03:12:55.673Z,12.08
2022-11-06T03:15:33.306Z,12.24
2022-11-06T03:18:03.514Z,12.16
2022-11-06T03:20:32.929Z,12.32
2022-11-06T03:23:04.297Z,12.25
2022-11-06T03:25:35.179Z,12.30
2022-11-06T03:28:05.808Z,12.15
2022-11-06T03:30:33.928Z,12.27
2022-11-06T03:33:03.944Z,12.22
2022-11-06T03:35:34.007Z,12.25
2022-11-06T03:38:03.445Z,12.16
2022-11-06T03:40:32.721Z,12.16
2022-11-06T03:43:02.048Z,12.11
2022-11-06T03:45:31.190Z,12.12
2022-11-06T03:48:00.879Z,12.12
2022-11-06T03:50:30.075Z,12.05
2022-11-06T03:53:00.215Z,11.94
2022-11-06T03:55:29.108Z,12.07
2022-11-06T03:57:58.164Z,12.02
2022-11-06T04:00:25.855Z,12.06
2022-11-06T04:03:04.750Z,12.08
2022-11-06T04:05:34.083Z,11.88
2022-11-06T04:08:23.780Z,12.06
2022-11-06T04:11:11.743Z,12.07
2022-11-06T04:13:57.218Z,11.96
2022-11-06T04:16:25.166Z,11.99
2022-11-06T04:18:54.354Z,11.99
2022-11-06T04:21:26.276Z,12.04
2022-11-06T04:24:24.796Z,12.03
2022-11-06T04:26:58.852Z,11.99
2022-11-06T04:29:31.648Z,11.95
2022-11-06T04:32:01.327Z,11.93
2022-11-06T04:34:32.758Z,12.05
2022-11-06T04:37:02.185Z,11.83
2022-11-06T04:39:30.851Z,12.03
2022-11-06T04:42:05.372Z,12.04
2022-11-06T04:44:34.775Z,12.07
2022-11-06T04:47:04.649Z,12.00
2022-11-06T04:49:34.587Z,11.93
2022-11-06T04:52:02.481Z,11.84
2022-11-06T04:54:30.315Z,11.97
2022-11-06T04:56:58.931Z,11.75
2022-11-06T04:59:26.732Z,12.04
2022-11-06T05:01:54.390Z,12.02
2022-11-06T05:04:22.324Z,12.05
2022-11-06T05:06:51.280Z,12.04
2022-11-06T05:09:19.040Z,12.05
2022-11-06T05:11:46.658Z,12.05
2022-11-06T05:14:14.333Z,12.10
2022-11-06T05:16:41.928Z,12.06
2022-11-06T05:19:09.668Z,12.09
2022-11-06T05:21:54.964Z,12.05
2022-11-06T05:24:23.954Z,12.04
2022-11-06T05:26:57.866Z,12.10
2022-11-06T05:29:26.929Z,11.85
2022-11-06T05:31:54.789Z,12.04
2022-11-06T05:34:22.442Z,12.05
2022-11-06T05:36:50.218Z,12.03
2022-11-06T05:39:17.874Z,11.99
2022-11-06T05:41:47.289Z,11.95
2022-11-06T05:44:15.152Z,11.99
2022-11-06T05:46:48.856Z,11.90
2022-11-06T05:49:17.325Z,11.95
2022-11-06T05:51:45.142Z,11.96
2022-11-06T05:54:12.756Z,11.96
2022-11-06T05:56:40.538Z,11.95
2022-11-06T05:59:09.678Z,11.89
2022-11-06T06:01:37.373Z,11.89
2022-11-06T06:04:08.290Z,10.02
2022-11-06T06:06:36.254Z,11.63
2022-11-06T06:09:05.655Z,11.95
2022-11-06T06:11:36.485Z,8.95
2022-11-06T06:14:08.336Z,11.97
2022-11-06T06:16:40.639Z,9.50
2022-11-06T06:19:08.628Z,10.25
2022-11-06T06:21:36.824Z,10.94
2022-11-06T06:24:14.516Z,11.11
2022-11-06T06:26:53.198Z,11.96
2022-11-06T06:29:26.577Z,12.02
2022-11-06T06:32:00.972Z,11.34
2022-11-06T06:34:32.314Z,11.29
2022-11-06T06:37:08.190Z,10.40
2022-11-06T06:39:36.057Z,11.64
2022-11-06T06:42:10.298Z,9.89
2022-11-06T06:44:40.287Z,11.34
2022-11-06T06:47:09.536Z,11.95
2022-11-06T06:49:37.892Z,10.96
2022-11-06T06:52:09.124Z,10.84
2022-11-06T06:54:42.963Z,10.75
2022-11-06T06:57:11.400Z,10.79
2022-11-06T06:59:41.834Z,11.22
2022-11-06T07:02:22.459Z,11.40
2022-11-06T07:04:57.791Z,10.27
2022-11-06T07:07:25.734Z,12.14
2022-11-06T07:13:07.210Z,9.65
2022-11-06T07:15:53.322Z,10.97
2022-11-06T07:18:25.440Z,11.90
2022-11-06T07:20:58.314Z,12.47
2022-11-06T07:23:46.669Z,12.17
2022-11-06T07:26:22.217Z,12.13
2022-11-06T07:28:50.145Z,11.50
2022-11-06T07:31:21.934Z,13.29
2022-11-06T07:33:53.794Z,13.01
2022-11-06T07:36:27.875Z,12.34
2022-11-06T07:39:10.975Z,14.70
2022-11-06T07:41:42.254Z,14.22
2022-11-06T07:44:18.356Z,13.96
2022-11-06T07:46:50.902Z,15.22
2022-11-06T07:49:23.113Z,17.51
2022-11-06T07:51:52.354Z,16.39
2022-11-06T07:54:20.210Z,17.44
2022-11-06T07:56:52.101Z,17.51
2022-11-06T07:59:21.760Z,16.27
2022-11-06T08:02:00.763Z,18.11
2022-11-06T08:04:32.392Z,18.34
2022-11-06T08:07:10.733Z,17.82
2022-11-06T08:09:43.333Z,19.11
2022-11-06T08:12:20.657Z,18.31
2022-11-06T08:14:52.956Z,18.84
2022-11-06T08:17:23.431Z,19.46
2022-11-06T08:20:00.189Z,21.28
2022-11-06T08:22:34.193Z,20.76
2022-11-06T08:25:07.637Z,20.64
2022-11-06T08:27:45.237Z,22.41
2022-11-06T08:30:20.451Z,20.21
2022-11-06T08:33:12.718Z,22.81
2022-11-06T08:35:53.187Z,22.55
2022-11-06T08:38:29.684Z,20.26
2022-11-06T08:41:18.961Z,23.01
2022-11-06T08:44:04.500Z,23.47
2022-11-06T08:46:41.960Z,21.46
2022-11-06T08:49:14.352Z,21.91
2022-11-06T08:52:22.685Z,21.93
2022-11-06T08:54:50.580Z,23.42
2022-11-06T08:57:18.642Z,24.09
2022-11-06T08:59:46.568Z,22.55
2022-11-06T09:02:14.919Z,24.59
2022-11-06T09:04:43.183Z,24.70
2022-11-06T09:07:12.473Z,24.83
2022-11-06T09:09:40.751Z,25.74
2022-11-06T09:12:09.081Z,25.67
2022-11-06T09:14:36.972Z,24.64
2022-11-06T09:17:13.510Z,24.22
2022-11-06T09:19:49.076Z,23.06
2022-11-06T09:22:24.662Z,22.00
2022-11-06T09:25:09.253Z,24.40
2022-11-06T09:27:44.800Z,25.52
2022-11-06T09:30:16.258Z,25.77
2022-11-06T09:32:50.093Z,25.35
2022-11-06T09:35:18.605Z,25.56
2022-11-06T09:37:51.940Z,24.45
2022-11-06T09:40:24.086Z,23.61
2022-11-06T09:42:58.023Z,22.66
2022-11-06T09:45:26.942Z,21.54
2022-11-06T09:47:58.871Z,21.35
2022-11-06T09:50:28.515Z,19.77
2022-11-06T09:53:04.623Z,22.87
2022-11-06T09:55:36.269Z,22.56
2022-11-06T09:58:05.756Z,22.35
2022-11-06T10:00:33.962Z,23.14
2022-11-06T10:03:05.584Z,23.19
2022-11-06T10:05:34.501Z,22.25
2022-11-06T10:08:08.031Z,24.02
2022-11-06T10:10:38.279Z,22.79
2022-11-06T10:13:26.173Z,21.45
2022-11-06T10:15:58.666Z,20.34
2022-11-06T10:18:32.256Z,19.85
2022-11-06T10:21:03.893Z,20.56
2022-11-06T10:23:37.626Z,20.98
2022-11-06T10:26:08.772Z,20.01
2022-11-06T10:28:46.083Z,21.29
2022-11-06T10:31:17.172Z,20.70
2022-11-06T10:33:51.589Z,22.34
2022-11-06T10:36:20.788Z,23.46
2022-11-06T10:38:50.163Z,22.96
2022-11-06T10:41:20.094Z,23.10
2022-11-06T10:43:50.606Z,22.71
2022-11-06T10:46:21.205Z,23.25
2022-11-06T10:48:50.820Z,23.19
2022-11-06T10:51:26.419Z,22.16
2022-11-06T10:54:01.145Z,22.38
2022-11-06T10:56:40.845Z,22.09
2022-11-06T10:59:08.859Z,19.13
2022-11-06T11:01:37.141Z,21.70
2022-11-06T11:04:05.669Z,19.65
2022-11-06T11:06:33.569Z,19.60
2022-11-06T11:09:03.294Z,19.19
2022-11-06T11:11:31.141Z,19.16
2022-11-06T11:14:15.737Z,19.84
2022-11-06T11:16:44.731Z,19.63
2022-11-06T11:19:20.456Z,18.88
2022-11-06T11:21:53.631Z,18.06
2022-11-06T11:24:25.297Z,17.03
2022-11-06T11:26:54.084Z,17.30
2022-11-06T11:29:24.717Z,19.45
2022-11-06T11:31:53.604Z,20.34
2022-11-06T11:34:22.632Z,19.39
2022-11-06T11:36:55.642Z,18.27
2022-11-06T11:39:26.478Z,18.52
2022-11-06T11:42:24.989Z,18.05
2022-11-06T11:45:16.891Z,18.09
2022-11-06T11:47:48.242Z,17.84
2022-11-06T11:50:25.934Z,17.00
2022-11-06T11:52:58.920Z,17.70
2022-11-06T11:55:29.755Z,18.22
2022-11-06T11:57:59.336Z,16.23
2022-11-06T12:00:31.949Z,17.69
2022-11-06T12:03:03.336Z,16.76
2022-11-06T12:05:35.106Z,17.56
2022-11-06T12:08:03.838Z,15.82
2022-11-06T12:10:39.702Z,18.30
2022-11-06T12:13:08.678Z,18.86
2022-11-06T12:15:42.494Z,19.06
2022-11-06T12:18:14.612Z,19.18
2022-11-06T12:20:45.408Z,19.09
2022-11-06T12:23:21.301Z,18.16
2022-11-06T12:25:57.002Z,19.00
2022-11-06T12:28:24.802Z,17.79
2022-11-06T12:30:58.076Z,18.71
2022-11-06T12:33:59.527Z,18.03
2022-11-06T12:36:16.214Z,18.36
2022-11-06T12:38:47.191Z,17.65
2022-11-06T12:41:17.567Z,17.53
2022-11-06T12:43:45.999Z,17.23
2022-11-06T12:46:22.078Z,16.56
2022-11-06T12:49:29.191Z,17.45
2022-11-06T12:52:10.929Z,17.31
2022-11-06T12:54:43.535Z,16.20
2022-11-06T12:57:17.141Z,16.72
2022-11-06T12:59:54.100Z,16.38
2022-11-06T13:02:28.635Z,15.77
2022-11-06T13:04:59.212Z,16.50
2022-11-06T13:07:43.548Z,17.32
2022-11-06T13:10:20.317Z,17.35
2022-11-06T13:12:54.383Z,16.31
2022-11-06T13:15:26.749Z,16.65
2022-11-06T13:17:56.749Z,17.54
2022-11-06T13:20:27.914Z,16.85
2022-11-06T13:22:59.074Z,16.96
2022-11-06T13:25:29.492Z,17.61
2022-11-06T13:27:59.721Z,16.70
2022-11-06T13:30:27.462Z,17.71
2022-11-06T13:33:02.075Z,17.01
2022-11-06T13:35:30.033Z,16.04
2022-11-06T13:37:57.837Z,17.31
2022-11-06T13:40:29.011Z,16.53
2022-11-06T13:43:01.089Z,17.11
2022-11-06T13:45:29.205Z,16.83
2022-11-06T13:48:08.920Z,17.34
2022-11-06T13:50:40.472Z,15.98
2022-11-06T13:53:13.704Z,17.32
2022-11-06T13:55:49.642Z,16.77
2022-11-06T13:58:50.082Z,16.27
2022-11-06T14:01:23.103Z,16.26
2022-11-06T14:04:19.115Z,16.00
2022-11-06T14:06:46.892Z,16.60
2022-11-06T14:09:17.556Z,16.36
2022-11-06T14:11:45.705Z,15.08
2022-11-06T14:14:24.295Z,17.46
2022-11-06T14:17:13.683Z,17.18
2022-11-06T14:19:44.023Z,16.47
2022-11-06T14:22:24.493Z,15.83
2022-11-06T14:24:55.695Z,16.52
2022-11-06T14:28:02.614Z,17.09
2022-11-06T14:33:59.397Z,16.80
2022-11-06T14:36:29.029Z,15.53
2022-11-06T14:38:56.700Z,15.51
2022-11-06T14:41:51.926Z,16.39
2022-11-06T14:44:33.207Z,15.96
2022-11-06T14:47:03.483Z,16.06
2022-11-06T14:49:41.782Z,15.23
2022-11-06T14:58:34.086Z,16.55
2022-11-06T15:01:03.229Z,15.87
2022-11-06T15:04:06.993Z,16.45
2022-11-06T15:06:43.379Z,16.43
2022-11-06T15:09:14.830Z,15.14
2022-11-06T15:11:57.524Z,16.46
2022-11-06T15:14:54.154Z,16.43
2022-11-06T15:17:22.369Z,15.36
2022-11-06T15:19:54.019Z,15.72
2022-11-06T15:22:23.094Z,14.99
2022-11-06T15:24:53.400Z,14.20
2022-11-06T15:27:21.731Z,14.08
2022-11-06T15:29:52.760Z,15.84
2022-11-06T15:32:22.086Z,15.56
2022-11-06T15:34:53.141Z,15.34
2022-11-06T15:37:21.870Z,15.69
2022-11-06T15:39:54.821Z,15.35
2022-11-06T15:42:28.612Z,15.59
2022-11-06T15:45:07.329Z,14.41
2022-11-06T15:47:36.390Z,16.00
2022-11-06T15:50:14.328Z,15.41
2022-11-06T15:52:42.000Z,13.72
2022-11-06T15:55:23.291Z,15.35
2022-11-06T16:10:16.743Z,13.53
2022-11-06T16:12:47.259Z,14.08
2022-11-06T16:34:12.631Z,14.20
2022-11-06T17:04:40.854Z,13.33
2022-11-06T17:36:00.256Z,12.73
2022-11-06T17:38:27.947Z,13.72
2022-11-06T17:40:55.707Z,13.25
2022-11-06T17:43:23.917Z,13.75
2022-11-06T17:45:52.352Z,13.30
2022-11-06T17:48:21.065Z,12.45
2022-11-06T17:51:08.203Z,12.76
2022-11-06T17:53:38.511Z,12.66
2022-11-06T17:56:07.932Z,12.62
2022-11-06T17:58:38.246Z,12.14
2022-11-06T18:01:09.658Z,12.03
2022-11-06T18:03:39.674Z,11.69
2022-11-06T18:06:10.673Z,12.69
2022-11-06T18:09:24.494Z,12.22
2022-11-06T18:11:52.430Z,11.28
2022-11-06T18:56:36.443Z,13.03
2022-11-06T18:59:06.235Z,13.63
2022-11-06T19:01:35.645Z,13.06
2022-11-06T19:04:04.738Z,12.50
2022-11-06T19:06:39.140Z,13.41
2022-11-06T19:09:07.806Z,13.69
2022-11-06T19:11:41.541Z,13.18
2022-11-06T19:14:10.560Z,12.64
2022-11-06T19:16:40.578Z,12.98
2022-11-06T19:19:08.374Z,13.33
2022-11-06T19:21:36.305Z,13.92
2022-11-06T19:27:50.513Z,13.93
2022-11-06T19:30:34.026Z,13.87
2022-11-06T19:33:01.737Z,13.14
2022-11-06T19:35:29.469Z,12.21
2022-11-06T19:37:57.100Z,12.88
2022-11-06T19:40:25.104Z,13.79
2022-11-06T19:42:52.897Z,13.44
2022-11-06T19:45:21.992Z,12.73
2022-11-06T19:47:51.221Z,13.95
2022-11-06T19:50:33.183Z,12.99
2022-11-06T19:53:06.833Z,13.68
2022-11-06T19:55:34.635Z,13.07
2022-11-06T19:58:02.289Z,13.26
2022-11-06T20:00:30.089Z,12.99
2022-11-06T20:02:59.353Z,12.56
2022-11-06T20:05:27.065Z,13.31
2022-11-06T20:07:55.407Z,13.77
2022-11-06T20:10:23.091Z,12.23
2022-11-06T20:12:50.721Z,13.70
2022-11-06T20:15:22.896Z,13.66
2022-11-06T20:17:51.883Z,13.08
2022-11-06T20:20:21.419Z,13.69
2022-11-06T20:22:49.626Z,12.81
2022-11-06T20:25:17.652Z,12.82
2022-11-06T20:27:45.757Z,13.19
2022-11-06T20:30:14.053Z,13.26
2022-11-06T20:32:41.725Z,13.19
2022-11-06T20:35:10.829Z,13.32
2022-11-06T20:37:39.950Z,13.82
2022-11-06T20:40:09.284Z,13.50
2022-11-06T20:42:36.979Z,13.91
2022-11-06T20:45:05.636Z,14.46
2022-11-06T20:47:33.335Z,14.48
2022-11-06T20:50:01.038Z,13.42
2022-11-06T20:52:29.379Z,13.16
2022-11-06T20:54:58.630Z,13.63
2022-11-06T20:57:27.460Z,13.37
2022-11-06T20:59:55.551Z,12.27
2022-11-06T21:02:23.592Z,14.49
2022-11-06T21:04:51.409Z,12.10
2022-11-06T21:07:24.976Z,13.71
2022-11-06T21:09:52.748Z,13.69
2022-11-06T21:12:22.144Z,12.56
2022-11-06T21:14:49.950Z,12.33
2022-11-06T21:17:17.651Z,12.75
2022-11-06T21:19:45.361Z,13.28
2022-11-06T21:22:13.012Z,13.25
2022-11-06T21:24:41.106Z,13.72
2022-11-06T21:27:09.750Z,14.52
2022-11-06T21:29:38.854Z,13.15
2022-11-06T21:32:06.798Z,14.32
2022-11-06T21:34:34.519Z,13.21
2022-11-06T21:37:03.043Z,13.35
2022-11-06T21:39:36.177Z,13.99
2022-11-06T21:42:04.432Z,12.80
2022-11-06T21:44:32.268Z,13.99
2022-11-06T21:47:01.513Z,13.72
2022-11-06T21:49:29.251Z,14.06
2022-11-06T21:52:17.032Z,14.71
